Aviation Digital Data Service (ADDS)

Output produced by TAFs form (0319 UTC 20 July 2018)
found at http://www.aviationweather.gov/adds/tafs/
 
KAGS 200253Z 08004KT 10SM SCT047 24/22 A2998 RMK AO2 SLP150 T02440222 51009
KAGS 200240Z 2003/2024 08006KT P6SM SCT035 BKN250 
     FM200800 05004KT P6SM SCT008 BKN025 
     TEMPO 2009/2013 2SM BR BKN008 
     FM201600 04008KT P6SM SCT025 BKN035